sensor_id;sensor_type;location;lat;lon;timestamp;P1;durP1;ratioP1;P2;durP2;ratioP2
8254;SDS011;4167;48.162;11.542;2023-02-11T00:02:07;347.17;;;62.87;;
8254;SDS011;4167;48.162;11.542;2023-02-11T00:04:34;302.57;;;60.53;;
8254;SDS011;4167;48.162;11.542;2023-02-11T00:07:01;367.53;;;65.10;;
8254;SDS011;4167;48.162;11.542;2023-02-11T00:09:28;340.17;;;62.83;;
8254;SDS011;4167;48.162;11.542;2023-02-11T00:11:54;384.57;;;66.23;;
8254;SDS011;4167;48.162;11.542;2023-02-11T00:14:21;457.10;;;71.37;;
8254;SDS011;4167;48.162;11.542;2023-02-11T00:16:48;378.30;;;65.53;;
8254;SDS011;4167;48.162;11.542;2023-02-11T00:19:14;249.00;;;57.50;;
8254;SDS011;4167;48.162;11.542;2023-02-11T00:21:41;194.97;;;55.33;;
8254;SDS011;4167;48.162;11.542;2023-02-11T00:24:08;171.80;;;54.13;;
8254;SDS011;4167;48.162;11.542;2023-02-11T00:26:35;166.50;;;54.10;;
8254;SDS011;4167;48.162;11.542;2023-02-11T00:29:02;226.43;;;55.70;;
8254;SDS011;4167;48.162;11.542;2023-02-11T00:31:29;228.67;;;56.53;;
8254;SDS011;4167;48.162;11.542;2023-02-11T00:33:56;211.50;;;51.53;;
8254;SDS011;4167;48.162;11.542;2023-02-11T00:36:24;183.30;;;53.57;;
8254;SDS011;4167;48.162;11.542;2023-02-11T00:38:52;190.83;;;54.37;;
8254;SDS011;4167;48.162;11.542;2023-02-11T00:41:21;139.17;;;47.63;;
8254;SDS011;4167;48.162;11.542;2023-02-11T00:43:48;171.97;;;52.70;;
8254;SDS011;4167;48.162;11.542;2023-02-11T00:46:15;183.10;;;52.67;;
8254;SDS011;4167;48.162;11.542;2023-02-11T00:48:41;153.60;;;51.93;;
8254;SDS011;4167;48.162;11.542;2023-02-11T00:51:08;153.47;;;51.53;;
8254;SDS011;4167;48.162;11.542;2023-02-11T00:53:34;159.20;;;52.00;;
8254;SDS011;4167;48.162;11.542;2023-02-11T00:56:01;243.80;;;56.97;;
8254;SDS011;4167;48.162;11.542;2023-02-11T00:58:29;144.87;;;50.27;;
8254;SDS011;4167;48.162;11.542;2023-02-11T01:00:56;190.47;;;53.70;;
8254;SDS011;4167;48.162;11.542;2023-02-11T01:03:23;158.57;;;52.33;;
8254;SDS011;4167;48.162;11.542;2023-02-11T01:05:49;210.50;;;54.23;;
8254;SDS011;4167;48.162;11.542;2023-02-11T01:08:16;154.50;;;51.37;;
8254;SDS011;4167;48.162;11.542;2023-02-11T01:10:42;155.57;;;51.10;;
8254;SDS011;4167;48.162;11.542;2023-02-11T01:13:09;155.47;;;52.53;;
8254;SDS011;4167;48.162;11.542;2023-02-11T01:15:36;185.93;;;54.10;;
8254;SDS011;4167;48.162;11.542;2023-02-11T01:18:03;199.87;;;54.63;;
8254;SDS011;4167;48.162;11.542;2023-02-11T01:20:30;183.30;;;51.73;;
8254;SDS011;4167;48.162;11.542;2023-02-11T01:22:56;207.80;;;54.43;;
8254;SDS011;4167;48.162;11.542;2023-02-11T01:25:23;161.97;;;51.73;;
8254;SDS011;4167;48.162;11.542;2023-02-11T01:27:49;156.27;;;50.90;;
8254;SDS011;4167;48.162;11.542;2023-02-11T01:30:16;166.63;;;50.47;;
8254;SDS011;4167;48.162;11.542;2023-02-11T01:32:44;151.23;;;51.17;;
8254;SDS011;4167;48.162;11.542;2023-02-11T01:35:10;189.03;;;53.10;;
8254;SDS011;4167;48.162;11.542;2023-02-11T01:37:36;166.67;;;51.17;;
8254;SDS011;4167;48.162;11.542;2023-02-11T01:40:03;196.40;;;53.00;;
8254;SDS011;4167;48.162;11.542;2023-02-11T01:42:32;158.70;;;51.50;;
8254;SDS011;4167;48.162;11.542;2023-02-11T01:44:58;188.17;;;54.23;;
8254;SDS011;4167;48.162;11.542;2023-02-11T01:47:25;179.63;;;51.80;;
8254;SDS011;4167;48.162;11.542;2023-02-11T01:49:54;173.47;;;53.30;;
8254;SDS011;4167;48.162;11.542;2023-02-11T01:52:23;178.33;;;53.43;;
8254;SDS011;4167;48.162;11.542;2023-02-11T01:54:52;174.30;;;52.63;;
8254;SDS011;4167;48.162;11.542;2023-02-11T01:57:39;166.67;;;52.10;;
8254;SDS011;4167;48.162;11.542;2023-02-11T02:00:09;143.13;;;49.70;;
8254;SDS011;4167;48.162;11.542;2023-02-11T02:02:39;163.27;;;50.23;;
8254;SDS011;4167;48.162;11.542;2023-02-11T02:05:16;148.97;;;51.30;;
8254;SDS011;4167;48.162;11.542;2023-02-11T02:07:49;160.07;;;52.47;;
8254;SDS011;4167;48.162;11.542;2023-02-11T02:10:20;141.60;;;50.77;;
8254;SDS011;4167;48.162;11.542;2023-02-11T02:12:48;142.03;;;50.10;;
8254;SDS011;4167;48.162;11.542;2023-02-11T02:15:22;170.73;;;52.47;;
8254;SDS011;4167;48.162;11.542;2023-02-11T02:17:53;172.73;;;52.47;;
8254;SDS011;4167;48.162;11.542;2023-02-11T02:23:35;137.03;;;49.97;;
8254;SDS011;4167;48.162;11.542;2023-02-11T02:29:36;191.10;;;53.60;;
8254;SDS011;4167;48.162;11.542;2023-02-11T02:32:22;169.67;;;51.73;;
8254;SDS011;4167;48.162;11.542;2023-02-11T02:35:03;196.17;;;52.40;;
8254;SDS011;4167;48.162;11.542;2023-02-11T02:37:36;158.93;;;50.50;;
8254;SDS011;4167;48.162;11.542;2023-02-11T02:40:08;195.03;;;52.20;;
8254;SDS011;4167;48.162;11.542;2023-02-11T02:42:37;132.07;;;49.43;;
8254;SDS011;4167;48.162;11.542;2023-02-11T02:45:05;170.97;;;51.27;;
8254;SDS011;4167;48.162;11.542;2023-02-11T02:47:34;123.90;;;48.97;;
8254;SDS011;4167;48.162;11.542;2023-02-11T02:50:00;263.77;;;56.50;;
8254;SDS011;4167;48.162;11.542;2023-02-11T02:52:30;142.83;;;48.63;;
8254;SDS011;4167;48.162;11.542;2023-02-11T02:55:09;228.97;;;53.13;;
8254;SDS011;4167;48.162;11.542;2023-02-11T02:57:43;145.17;;;49.77;;
8254;SDS011;4167;48.162;11.542;2023-02-11T03:00:18;164.33;;;49.93;;
8254;SDS011;4167;48.162;11.542;2023-02-11T03:02:57;138.07;;;48.70;;
8254;SDS011;4167;48.162;11.542;2023-02-11T03:05:37;152.10;;;47.47;;
8254;SDS011;4167;48.162;11.542;2023-02-11T03:08:11;132.63;;;47.90;;
8254;SDS011;4167;48.162;11.542;2023-02-11T03:10:42;132.70;;;45.63;;
8254;SDS011;4167;48.162;11.542;2023-02-11T03:13:09;181.27;;;48.57;;
8254;SDS011;4167;48.162;11.542;2023-02-11T03:15:37;191.07;;;51.60;;
8254;SDS011;4167;48.162;11.542;2023-02-11T03:18:07;152.53;;;47.30;;
8254;SDS011;4167;48.162;11.542;2023-02-11T03:20:35;126.63;;;47.63;;
8254;SDS011;4167;48.162;11.542;2023-02-11T03:23:03;183.80;;;50.70;;
8254;SDS011;4167;48.162;11.542;2023-02-11T03:25:33;142.60;;;49.53;;
8254;SDS011;4167;48.162;11.542;2023-02-11T03:28:03;224.60;;;52.50;;
8254;SDS011;4167;48.162;11.542;2023-02-11T03:30:32;140.87;;;48.53;;
8254;SDS011;4167;48.162;11.542;2023-02-11T03:33:02;195.77;;;51.33;;
8254;SDS011;4167;48.162;11.542;2023-02-11T03:35:34;224.67;;;52.47;;
8254;SDS011;4167;48.162;11.542;2023-02-11T03:38:04;193.10;;;51.97;;
8254;SDS011;4167;48.162;11.542;2023-02-11T03:40:34;138.07;;;48.80;;
8254;SDS011;4167;48.162;11.542;2023-02-11T03:43:02;188.87;;;50.70;;
8254;SDS011;4167;48.162;11.542;2023-02-11T03:45:34;158.90;;;49.57;;
8254;SDS011;4167;48.162;11.542;2023-02-11T03:48:02;194.90;;;51.03;;
8254;SDS011;4167;48.162;11.542;2023-02-11T03:50:29;169.40;;;51.30;;
8254;SDS011;4167;48.162;11.542;2023-02-11T03:52:59;169.50;;;50.43;;
8254;SDS011;4167;48.162;11.542;2023-02-11T03:55:27;164.00;;;50.40;;
8254;SDS011;4167;48.162;11.542;2023-02-11T03:57:55;210.97;;;53.60;;
8254;SDS011;4167;48.162;11.542;2023-02-11T04:00:27;137.90;;;49.67;;
8254;SDS011;4167;48.162;11.542;2023-02-11T04:02:55;162.33;;;49.93;;
8254;SDS011;4167;48.162;11.542;2023-02-11T04:05:21;156.50;;;50.90;;
8254;SDS011;4167;48.162;11.542;2023-02-11T04:07:47;160.37;;;48.67;;
8254;SDS011;4167;48.162;11.542;2023-02-11T04:10:15;111.87;;;47.67;;
8254;SDS011;4167;48.162;11.542;2023-02-11T04:12:42;112.37;;;47.07;;
8254;SDS011;4167;48.162;11.542;2023-02-11T04:15:09;138.67;;;48.73;;
8254;SDS011;4167;48.162;11.542;2023-02-11T04:17:35;129.57;;;47.50;;
8254;SDS011;4167;48.162;11.542;2023-02-11T04:20:02;202.37;;;51.43;;
8254;SDS011;4167;48.162;11.542;2023-02-11T04:22:29;136.00;;;47.57;;
8254;SDS011;4167;48.162;11.542;2023-02-11T04:24:56;172.03;;;49.43;;
8254;SDS011;4167;48.162;11.542;2023-02-11T04:27:24;156.87;;;49.50;;
8254;SDS011;4167;48.162;11.542;2023-02-11T04:29:50;128.37;;;48.03;;
8254;SDS011;4167;48.162;11.542;2023-02-11T04:32:18;132.80;;;47.83;;
8254;SDS011;4167;48.162;11.542;2023-02-11T04:34:44;98.57;;;45.93;;
8254;SDS011;4167;48.162;11.542;2023-02-11T04:37:11;135.07;;;48.33;;
8254;SDS011;4167;48.162;11.542;2023-02-11T04:39:37;133.80;;;47.20;;
8254;SDS011;4167;48.162;11.542;2023-02-11T04:42:04;423.63;;;65.70;;
8254;SDS011;4167;48.162;11.542;2023-02-11T04:44:32;155.93;;;49.53;;
8254;SDS011;4167;48.162;11.542;2023-02-11T04:46:58;174.73;;;50.33;;
8254;SDS011;4167;48.162;11.542;2023-02-11T04:49:25;155.13;;;49.27;;
8254;SDS011;4167;48.162;11.542;2023-02-11T04:51:51;146.47;;;47.97;;
8254;SDS011;4167;48.162;11.542;2023-02-11T04:54:18;237.27;;;53.50;;
8254;SDS011;4167;48.162;11.542;2023-02-11T04:56:45;112.43;;;47.17;;
8254;SDS011;4167;48.162;11.542;2023-02-11T04:59:13;158.73;;;48.87;;
8254;SDS011;4167;48.162;11.542;2023-02-11T05:01:41;191.80;;;50.33;;
8254;SDS011;4167;48.162;11.542;2023-02-11T05:04:08;115.03;;;47.03;;
8254;SDS011;4167;48.162;11.542;2023-02-11T05:06:34;156.20;;;48.63;;
8254;SDS011;4167;48.162;11.542;2023-02-11T05:09:03;187.40;;;50.40;;
8254;SDS011;4167;48.162;11.542;2023-02-11T05:11:29;177.13;;;49.77;;
8254;SDS011;4167;48.162;11.542;2023-02-11T05:13:56;177.87;;;48.87;;
8254;SDS011;4167;48.162;11.542;2023-02-11T05:16:22;142.60;;;48.00;;
8254;SDS011;4167;48.162;11.542;2023-02-11T05:18:50;105.10;;;46.23;;
8254;SDS011;4167;48.162;11.542;2023-02-11T05:21:17;154.50;;;48.83;;
8254;SDS011;4167;48.162;11.542;2023-02-11T05:23:44;141.17;;;47.97;;
8254;SDS011;4167;48.162;11.542;2023-02-11T05:26:11;136.50;;;48.60;;
8254;SDS011;4167;48.162;11.542;2023-02-11T05:28:38;210.90;;;52.00;;
8254;SDS011;4167;48.162;11.542;2023-02-11T05:31:04;154.83;;;49.43;;
8254;SDS011;4167;48.162;11.542;2023-02-11T05:33:31;191.80;;;51.60;;
8254;SDS011;4167;48.162;11.542;2023-02-11T05:35:59;191.00;;;50.83;;
8254;SDS011;4167;48.162;11.542;2023-02-11T05:38:27;138.17;;;48.40;;
8254;SDS011;4167;48.162;11.542;2023-02-11T05:40:54;146.20;;;49.57;;
8254;SDS011;4167;48.162;11.542;2023-02-11T05:43:21;154.20;;;49.90;;
8254;SDS011;4167;48.162;11.542;2023-02-11T05:45:48;126.00;;;48.60;;
8254;SDS011;4167;48.162;11.542;2023-02-11T05:48:14;180.20;;;51.77;;
8254;SDS011;4167;48.162;11.542;2023-02-11T05:50:41;144.80;;;48.80;;
8254;SDS011;4167;48.162;11.542;2023-02-11T05:53:09;132.83;;;47.97;;
8254;SDS011;4167;48.162;11.542;2023-02-11T05:55:36;176.73;;;50.73;;
8254;SDS011;4167;48.162;11.542;2023-02-11T05:58:03;195.60;;;52.13;;
8254;SDS011;4167;48.162;11.542;2023-02-11T06:00:32;206.97;;;52.73;;
8254;SDS011;4167;48.162;11.542;2023-02-11T06:02:58;209.17;;;52.97;;
8254;SDS011;4167;48.162;11.542;2023-02-11T06:05:25;148.77;;;48.33;;
8254;SDS011;4167;48.162;11.542;2023-02-11T06:07:51;149.60;;;49.60;;
8254;SDS011;4167;48.162;11.542;2023-02-11T06:10:19;191.57;;;51.87;;
8254;SDS011;4167;48.162;11.542;2023-02-11T06:12:46;180.20;;;51.10;;
8254;SDS011;4167;48.162;11.542;2023-02-11T06:15:12;167.90;;;51.10;;
8254;SDS011;4167;48.162;11.542;2023-02-11T06:17:39;150.57;;;49.03;;
8254;SDS011;4167;48.162;11.542;2023-02-11T06:20:06;230.40;;;53.93;;
8254;SDS011;4167;48.162;11.542;2023-02-11T06:22:34;173.17;;;50.27;;
8254;SDS011;4167;48.162;11.542;2023-02-11T06:25:01;203.07;;;52.43;;
8254;SDS011;4167;48.162;11.542;2023-02-11T06:27:29;179.83;;;51.33;;
8254;SDS011;4167;48.162;11.542;2023-02-11T06:29:56;203.50;;;52.87;;
8254;SDS011;4167;48.162;11.542;2023-02-11T06:32:22;208.33;;;52.67;;
8254;SDS011;4167;48.162;11.542;2023-02-11T06:34:49;120.53;;;48.70;;
8254;SDS011;4167;48.162;11.542;2023-02-11T06:37:15;156.00;;;50.03;;
8254;SDS011;4167;48.162;11.542;2023-02-11T06:39:42;154.43;;;49.90;;
8254;SDS011;4167;48.162;11.542;2023-02-11T06:42:09;178.03;;;51.47;;
8254;SDS011;4167;48.162;11.542;2023-02-11T06:44:37;203.17;;;52.73;;
8254;SDS011;4167;48.162;11.542;2023-02-11T06:47:04;197.83;;;52.40;;
8254;SDS011;4167;48.162;11.542;2023-02-11T06:49:30;176.43;;;50.60;;
8254;SDS011;4167;48.162;11.542;2023-02-11T06:51:57;158.97;;;50.60;;
8254;SDS011;4167;48.162;11.542;2023-02-11T06:54:23;224.73;;;53.70;;
8254;SDS011;4167;48.162;11.542;2023-02-11T06:56:50;144.13;;;49.57;;
8254;SDS011;4167;48.162;11.542;2023-02-11T06:59:17;169.03;;;49.60;;
8254;SDS011;4167;48.162;11.542;2023-02-11T07:01:46;161.20;;;50.17;;
8254;SDS011;4167;48.162;11.542;2023-02-11T07:04:13;190.67;;;52.13;;
8254;SDS011;4167;48.162;11.542;2023-02-11T07:06:39;186.37;;;52.30;;
8254;SDS011;4167;48.162;11.542;2023-02-11T07:09:06;182.03;;;51.67;;
8254;SDS011;4167;48.162;11.542;2023-02-11T07:11:33;148.13;;;49.90;;
8254;SDS011;4167;48.162;11.542;2023-02-11T07:14:00;397.43;;;64.30;;
8254;SDS011;4167;48.162;11.542;2023-02-11T07:16:28;284.03;;;57.13;;
8254;SDS011;4167;48.162;11.542;2023-02-11T07:18:58;181.50;;;52.03;;
8254;SDS011;4167;48.162;11.542;2023-02-11T07:21:24;218.17;;;54.23;;
8254;SDS011;4167;48.162;11.542;2023-02-11T07:23:51;187.10;;;51.87;;
8254;SDS011;4167;48.162;11.542;2023-02-11T07:26:19;188.93;;;52.07;;
8254;SDS011;4167;48.162;11.542;2023-02-11T07:28:47;221.23;;;53.23;;
8254;SDS011;4167;48.162;11.542;2023-02-11T07:31:14;192.43;;;53.23;;
8254;SDS011;4167;48.162;11.542;2023-02-11T07:33:42;175.90;;;50.67;;
8254;SDS011;4167;48.162;11.542;2023-02-11T07:36:11;217.07;;;54.27;;
8254;SDS011;4167;48.162;11.542;2023-02-11T07:38:39;259.57;;;57.17;;
8254;SDS011;4167;48.162;11.542;2023-02-11T07:41:06;219.83;;;54.03;;
8254;SDS011;4167;48.162;11.542;2023-02-11T07:43:34;185.93;;;51.87;;
8254;SDS011;4167;48.162;11.542;2023-02-11T07:46:02;253.47;;;56.57;;
8254;SDS011;4167;48.162;11.542;2023-02-11T07:48:28;180.00;;;52.40;;
8254;SDS011;4167;48.162;11.542;2023-02-11T07:50:55;253.00;;;56.00;;
8254;SDS011;4167;48.162;11.542;2023-02-11T07:53:24;213.10;;;54.67;;
8254;SDS011;4167;48.162;11.542;2023-02-11T07:55:51;253.10;;;56.33;;
8254;SDS011;4167;48.162;11.542;2023-02-11T07:58:17;162.30;;;51.67;;
8254;SDS011;4167;48.162;11.542;2023-02-11T08:00:43;228.63;;;55.87;;
8254;SDS011;4167;48.162;11.542;2023-02-11T08:03:10;175.40;;;52.33;;
8254;SDS011;4167;48.162;11.542;2023-02-11T08:05:37;226.57;;;53.77;;
8254;SDS011;4167;48.162;11.542;2023-02-11T08:08:03;211.13;;;54.23;;
8254;SDS011;4167;48.162;11.542;2023-02-11T08:10:31;195.87;;;53.63;;
8254;SDS011;4167;48.162;11.542;2023-02-11T08:12:58;236.93;;;56.20;;
8254;SDS011;4167;48.162;11.542;2023-02-11T08:15:24;187.93;;;55.53;;
8254;SDS011;4167;48.162;11.542;2023-02-11T08:17:50;224.33;;;55.23;;
8254;SDS011;4167;48.162;11.542;2023-02-11T08:20:17;210.40;;;56.90;;
8254;SDS011;4167;48.162;11.542;2023-02-11T08:22:44;278.57;;;59.77;;
8254;SDS011;4167;48.162;11.542;2023-02-11T08:25:10;242.90;;;59.20;;
8254;SDS011;4167;48.162;11.542;2023-02-11T08:27:38;227.80;;;57.10;;
8254;SDS011;4167;48.162;11.542;2023-02-11T08:30:05;268.17;;;60.13;;
8254;SDS011;4167;48.162;11.542;2023-02-11T08:32:33;189.37;;;56.33;;
8254;SDS011;4167;48.162;11.542;2023-02-11T08:34:59;227.03;;;58.00;;
8254;SDS011;4167;48.162;11.542;2023-02-11T08:37:26;237.70;;;58.00;;
8254;SDS011;4167;48.162;11.542;2023-02-11T08:39:52;289.90;;;62.53;;
8254;SDS011;4167;48.162;11.542;2023-02-11T08:42:18;193.23;;;55.47;;
8254;SDS011;4167;48.162;11.542;2023-02-11T08:44:46;218.27;;;57.23;;
8254;SDS011;4167;48.162;11.542;2023-02-11T08:47:13;315.40;;;65.13;;
8254;SDS011;4167;48.162;11.542;2023-02-11T08:49:39;317.20;;;65.10;;
8254;SDS011;4167;48.162;11.542;2023-02-11T08:52:06;260.80;;;61.00;;
8254;SDS011;4167;48.162;11.542;2023-02-11T08:54:32;210.83;;;58.27;;
8254;SDS011;4167;48.162;11.542;2023-02-11T08:56:59;178.37;;;55.07;;
8254;SDS011;4167;48.162;11.542;2023-02-11T08:59:26;190.00;;;57.43;;
8254;SDS011;4167;48.162;11.542;2023-02-11T09:01:54;230.53;;;58.97;;
8254;SDS011;4167;48.162;11.542;2023-02-11T09:04:21;187.27;;;56.90;;
8254;SDS011;4167;48.162;11.542;2023-02-11T09:06:47;250.70;;;60.63;;
8254;SDS011;4167;48.162;11.542;2023-02-11T09:09:14;201.83;;;58.27;;
8254;SDS011;4167;48.162;11.542;2023-02-11T09:11:41;166.17;;;54.90;;
8254;SDS011;4167;48.162;11.542;2023-02-11T09:14:11;211.90;;;63.77;;
8254;SDS011;4167;48.162;11.542;2023-02-11T09:16:41;178.73;;;57.97;;
8254;SDS011;4167;48.162;11.542;2023-02-11T09:19:09;191.47;;;58.80;;
8254;SDS011;4167;48.162;11.542;2023-02-11T09:21:36;204.70;;;58.67;;
8254;SDS011;4167;48.162;11.542;2023-02-11T09:24:03;210.70;;;59.67;;
8254;SDS011;4167;48.162;11.542;2023-02-11T09:26:31;166.90;;;57.63;;
8254;SDS011;4167;48.162;11.542;2023-02-11T09:28:59;272.40;;;63.67;;
8254;SDS011;4167;48.162;11.542;2023-02-11T09:31:29;186.93;;;59.63;;
8254;SDS011;4167;48.162;11.542;2023-02-11T09:33:57;226.73;;;59.93;;
8254;SDS011;4167;48.162;11.542;2023-02-11T09:36:27;307.88;;;68.57;;
8254;SDS011;4167;48.162;11.542;2023-02-11T09:38:54;211.60;;;59.97;;
8254;SDS011;4167;48.162;11.542;2023-02-11T09:41:26;216.33;;;59.77;;
8254;SDS011;4167;48.162;11.542;2023-02-11T09:44:01;189.37;;;59.00;;
8254;SDS011;4167;48.162;11.542;2023-02-11T09:46:30;151.73;;;55.90;;
8254;SDS011;4167;48.162;11.542;2023-02-11T09:48:58;181.30;;;57.57;;
8254;SDS011;4167;48.162;11.542;2023-02-11T09:51:28;206.83;;;59.80;;
8254;SDS011;4167;48.162;11.542;2023-02-11T09:53:59;294.87;;;65.53;;
8254;SDS011;4167;48.162;11.542;2023-02-11T09:56:29;178.57;;;57.37;;
8254;SDS011;4167;48.162;11.542;2023-02-11T09:58:56;199.20;;;57.60;;
8254;SDS011;4167;48.162;11.542;2023-02-11T10:01:25;191.27;;;58.87;;
8254;SDS011;4167;48.162;11.542;2023-02-11T10:04:03;147.17;;;56.30;;
8254;SDS011;4167;48.162;11.542;2023-02-11T10:06:38;208.55;;;63.72;;
8254;SDS011;4167;48.162;11.542;2023-02-11T10:09:10;197.23;;;59.50;;
8254;SDS011;4167;48.162;11.542;2023-02-11T10:11:48;187.73;;;58.70;;
8254;SDS011;4167;48.162;11.542;2023-02-11T10:14:21;227.57;;;64.60;;
8254;SDS011;4167;48.162;11.542;2023-02-11T10:16:56;199.20;;;65.17;;
8254;SDS011;4167;48.162;11.542;2023-02-11T10:19:40;298.97;;;68.70;;
8254;SDS011;4167;48.162;11.542;2023-02-11T10:22:14;234.00;;;63.63;;
8254;SDS011;4167;48.162;11.542;2023-02-11T10:24:47;165.27;;;59.40;;
8254;SDS011;4167;48.162;11.542;2023-02-11T10:27:18;189.43;;;60.27;;
8254;SDS011;4167;48.162;11.542;2023-02-11T10:29:47;131.60;;;56.03;;
8254;SDS011;4167;48.162;11.542;2023-02-11T10:32:25;186.43;;;60.30;;
8254;SDS011;4167;48.162;11.542;2023-02-11T10:34:57;206.33;;;61.73;;
8254;SDS011;4167;48.162;11.542;2023-02-11T10:37:28;208.67;;;61.07;;
8254;SDS011;4167;48.162;11.542;2023-02-11T10:39:55;188.10;;;59.87;;
8254;SDS011;4167;48.162;11.542;2023-02-11T10:42:21;259.17;;;64.10;;
8254;SDS011;4167;48.162;11.542;2023-02-11T10:44:51;185.83;;;60.07;;
8254;SDS011;4167;48.162;11.542;2023-02-11T10:47:23;295.33;;;66.23;;
8254;SDS011;4167;48.162;11.542;2023-02-11T10:49:51;175.20;;;58.70;;
8254;SDS011;4167;48.162;11.542;2023-02-11T10:52:19;167.77;;;58.67;;
8254;SDS011;4167;48.162;11.542;2023-02-11T10:55:03;192.33;;;59.97;;
8254;SDS011;4167;48.162;11.542;2023-02-11T10:57:32;240.67;;;64.17;;
8254;SDS011;4167;48.162;11.542;2023-02-11T11:00:03;225.50;;;62.60;;
8254;SDS011;4167;48.162;11.542;2023-02-11T11:02:32;206.83;;;60.87;;
8254;SDS011;4167;48.162;11.542;2023-02-11T11:05:03;241.07;;;63.30;;
8254;SDS011;4167;48.162;11.542;2023-02-11T11:07:33;204.40;;;61.53;;
8254;SDS011;4167;48.162;11.542;2023-02-11T11:10:04;224.20;;;62.67;;
8254;SDS011;4167;48.162;11.542;2023-02-11T11:12:33;205.23;;;61.37;;
8254;SDS011;4167;48.162;11.542;2023-02-11T11:15:13;226.93;;;62.77;;
8254;SDS011;4167;48.162;11.542;2023-02-11T11:17:42;186.37;;;60.40;;
8254;SDS011;4167;48.162;11.542;2023-02-11T11:20:13;238.77;;;64.50;;
8254;SDS011;4167;48.162;11.542;2023-02-11T11:22:48;238.70;;;64.17;;
8254;SDS011;4167;48.162;11.542;2023-02-11T11:25:24;189.33;;;61.43;;
8254;SDS011;4167;48.162;11.542;2023-02-11T11:27:52;164.87;;;59.93;;
8254;SDS011;4167;48.162;11.542;2023-02-11T11:30:20;253.90;;;64.73;;
8254;SDS011;4167;48.162;11.542;2023-02-11T11:32:48;242.57;;;63.83;;
8254;SDS011;4167;48.162;11.542;2023-02-11T11:35:24;211.57;;;61.40;;
8254;SDS011;4167;48.162;11.542;2023-02-11T11:37:53;215.07;;;62.20;;
8254;SDS011;4167;48.162;11.542;2023-02-11T11:40:21;255.07;;;64.47;;
8254;SDS011;4167;48.162;11.542;2023-02-11T11:43:05;209.67;;;61.47;;
8254;SDS011;4167;48.162;11.542;2023-02-11T11:45:51;188.00;;;59.67;;
8254;SDS011;4167;48.162;11.542;2023-02-11T11:48:19;325.73;;;68.07;;
8254;SDS011;4167;48.162;11.542;2023-02-11T11:50:48;269.00;;;64.63;;
8254;SDS011;4167;48.162;11.542;2023-02-11T11:53:19;215.97;;;61.90;;
8254;SDS011;4167;48.162;11.542;2023-02-11T11:55:48;201.77;;;61.30;;
8254;SDS011;4167;48.162;11.542;2023-02-11T11:58:19;217.53;;;62.60;;
8254;SDS011;4167;48.162;11.542;2023-02-11T12:00:50;138.93;;;58.27;;
8254;SDS011;4167;48.162;11.542;2023-02-11T12:06:28;233.47;;;64.37;;
8254;SDS011;4167;48.162;11.542;2023-02-11T12:09:05;245.23;;;65.37;;
8254;SDS011;4167;48.162;11.542;2023-02-11T12:11:43;173.63;;;59.63;;
8254;SDS011;4167;48.162;11.542;2023-02-11T12:14:20;255.40;;;63.00;;
8254;SDS011;4167;48.162;11.542;2023-02-11T12:16:52;201.67;;;61.20;;
8254;SDS011;4167;48.162;11.542;2023-02-11T12:19:30;145.00;;;57.37;;
8254;SDS011;4167;48.162;11.542;2023-02-11T12:22:17;209.07;;;61.97;;
8254;SDS011;4167;48.162;11.542;2023-02-11T12:24:53;201.53;;;61.67;;
8254;SDS011;4167;48.162;11.542;2023-02-11T12:27:32;260.27;;;64.27;;
8254;SDS011;4167;48.162;11.542;2023-02-11T12:30:08;308.27;;;67.27;;
8254;SDS011;4167;48.162;11.542;2023-02-11T12:32:44;242.97;;;62.97;;
8254;SDS011;4167;48.162;11.542;2023-02-11T12:35:15;287.23;;;65.40;;
8254;SDS011;4167;48.162;11.542;2023-02-11T12:38:06;259.23;;;63.93;;
8254;SDS011;4167;48.162;11.542;2023-02-11T12:40:40;196.57;;;60.47;;
8254;SDS011;4167;48.162;11.542;2023-02-11T12:43:13;223.87;;;62.77;;
8254;SDS011;4167;48.162;11.542;2023-02-11T12:48:54;251.87;;;64.53;;
8254;SDS011;4167;48.162;11.542;2023-02-11T12:51:30;164.73;;;59.03;;
8254;SDS011;4167;48.162;11.542;2023-02-11T12:54:17;251.57;;;63.90;;
8254;SDS011;4167;48.162;11.542;2023-02-11T12:56:48;149.93;;;57.13;;
8254;SDS011;4167;48.162;11.542;2023-02-11T12:59:25;199.13;;;61.03;;
8254;SDS011;4167;48.162;11.542;2023-02-11T13:01:56;206.37;;;60.70;;
8254;SDS011;4167;48.162;11.542;2023-02-11T13:04:25;304.53;;;66.50;;
8254;SDS011;4167;48.162;11.542;2023-02-11T13:06:56;267.60;;;63.80;;
8254;SDS011;4167;48.162;11.542;2023-02-11T13:09:27;254.60;;;71.67;;
8254;SDS011;4167;48.162;11.542;2023-02-11T13:11:56;237.40;;;63.53;;
8254;SDS011;4167;48.162;11.542;2023-02-11T13:14:45;171.13;;;59.67;;
8254;SDS011;4167;48.162;11.542;2023-02-11T13:17:16;211.37;;;63.67;;
8254;SDS011;4167;48.162;11.542;2023-02-11T13:19:44;247.03;;;64.93;;
8254;SDS011;4167;48.162;11.542;2023-02-11T13:22:15;181.67;;;64.50;;
8254;SDS011;4167;48.162;11.542;2023-02-11T13:24:43;201.37;;;60.53;;
8254;SDS011;4167;48.162;11.542;2023-02-11T13:27:19;174.83;;;59.33;;
8254;SDS011;4167;48.162;11.542;2023-02-11T13:33:05;221.60;;;61.30;;
8254;SDS011;4167;48.162;11.542;2023-02-11T13:35:44;204.43;;;60.33;;
8254;SDS011;4167;48.162;11.542;2023-02-11T13:38:18;198.70;;;61.40;;
8254;SDS011;4167;48.162;11.542;2023-02-11T13:40:56;182.67;;;58.67;;
8254;SDS011;4167;48.162;11.542;2023-02-11T13:43:25;174.07;;;58.50;;
8254;SDS011;4167;48.162;11.542;2023-02-11T13:45:57;240.43;;;66.87;;
8254;SDS011;4167;48.162;11.542;2023-02-11T13:48:25;201.70;;;62.53;;
8254;SDS011;4167;48.162;11.542;2023-02-11T13:50:55;165.70;;;58.87;;
8254;SDS011;4167;48.162;11.542;2023-02-11T13:53:23;181.30;;;59.60;;
8254;SDS011;4167;48.162;11.542;2023-02-11T13:55:50;205.30;;;59.73;;
8254;SDS011;4167;48.162;11.542;2023-02-11T13:58:32;182.70;;;59.07;;
8254;SDS011;4167;48.162;11.542;2023-02-11T14:01:05;275.60;;;64.70;;
8254;SDS011;4167;48.162;11.542;2023-02-11T14:03:33;157.43;;;57.53;;
8254;SDS011;4167;48.162;11.542;2023-02-11T14:06:22;171.10;;;58.70;;
8254;SDS011;4167;48.162;11.542;2023-02-11T14:12:21;231.07;;;62.30;;
8254;SDS011;4167;48.162;11.542;2023-02-11T14:14:56;270.60;;;63.60;;
8254;SDS011;4167;48.162;11.542;2023-02-11T14:17:29;194.20;;;57.90;;
8254;SDS011;4167;48.162;11.542;2023-02-11T14:19:57;241.10;;;62.13;;
8254;SDS011;4167;48.162;11.542;2023-02-11T14:22:25;302.37;;;66.13;;
8254;SDS011;4167;48.162;11.542;2023-02-11T14:24:54;209.50;;;60.23;;
8254;SDS011;4167;48.162;11.542;2023-02-11T14:27:29;222.80;;;61.10;;
8254;SDS011;4167;48.162;11.542;2023-02-11T14:30:01;256.83;;;63.17;;
8254;SDS011;4167;48.162;11.542;2023-02-11T14:32:37;179.03;;;57.57;;
8254;SDS011;4167;48.162;11.542;2023-02-11T14:35:13;221.63;;;61.83;;
8254;SDS011;4167;48.162;11.542;2023-02-11T14:37:48;252.10;;;63.33;;
8254;SDS011;4167;48.162;11.542;2023-02-11T14:40:21;230.30;;;61.23;;
8254;SDS011;4167;48.162;11.542;2023-02-11T14:42:52;181.17;;;59.30;;
8254;SDS011;4167;48.162;11.542;2023-02-11T14:45:20;233.40;;;61.93;;
8254;SDS011;4167;48.162;11.542;2023-02-11T14:47:52;192.47;;;58.77;;
8254;SDS011;4167;48.162;11.542;2023-02-11T14:50:21;299.73;;;66.10;;
8254;SDS011;4167;48.162;11.542;2023-02-11T14:52:49;251.93;;;63.43;;
8254;SDS011;4167;48.162;11.542;2023-02-11T14:55:20;265.87;;;65.87;;